createdAt,value
2022-12-17T11:09:42.349Z,20.00
2022-12-17T11:10:12.302Z,20.40
2022-12-17T11:10:42.266Z,21.20
2022-12-17T11:11:12.257Z,19.60
2022-12-17T11:11:42.198Z,19.80
2022-12-17T11:12:12.164Z,19.00
2022-12-17T11:12:42.112Z,22.40
2022-12-17T11:13:12.109Z,20.00
2022-12-17T11:13:41.998Z,19.60
2022-12-17T11:14:11.956Z,19.80
2022-12-17T11:14:42.176Z,18.90
2022-12-17T11:15:11.884Z,19.00
2022-12-17T11:15:41.864Z,20.10
2022-12-17T11:16:11.775Z,20.00
2022-12-17T11:16:41.792Z,19.30
2022-12-17T11:17:11.736Z,20.50
2022-12-17T11:17:41.621Z,19.60
2022-12-17T11:18:12.032Z,23.90
2022-12-17T11:18:41.361Z,24.30
2022-12-17T11:19:11.241Z,21.80
2022-12-17T11:19:41.266Z,23.40
2022-12-17T11:20:11.189Z,18.60
2022-12-17T11:20:41.024Z,19.40
2022-12-17T11:21:10.934Z,19.10
2022-12-17T11:21:40.854Z,20.80
2022-12-17T11:22:10.908Z,18.90
2022-12-17T11:22:40.706Z,21.30
2022-12-17T11:23:10.640Z,18.90
2022-12-17T11:23:40.570Z,18.90
2022-12-17T11:24:10.439Z,17.00
2022-12-17T11:24:40.408Z,19.10
2022-12-17T11:25:10.297Z,18.80
2022-12-17T11:25:40.210Z,19.50
2022-12-17T11:26:10.117Z,18.60
2022-12-17T11:26:40.018Z,19.30
2022-12-17T11:27:09.988Z,16.50
2022-12-17T11:27:39.870Z,17.30
2022-12-17T11:28:09.786Z,19.30
2022-12-17T11:28:39.744Z,18.20
2022-12-17T11:29:09.616Z,16.90
2022-12-17T11:29:39.533Z,16.70
2022-12-17T11:30:09.439Z,17.20
2022-12-17T11:30:39.390Z,19.60
2022-12-17T11:31:09.389Z,19.70
2022-12-17T11:31:39.315Z,19.90
2022-12-17T11:32:09.085Z,22.20
2022-12-17T11:32:39.013Z,25.90
2022-12-17T11:33:08.944Z,19.00
2022-12-17T11:33:39.202Z,19.70
2022-12-17T11:34:08.793Z,20.50
2022-12-17T11:34:38.724Z,20.40
2022-12-17T11:35:08.684Z,20.50
2022-12-17T11:35:38.633Z,20.40
2022-12-17T11:36:08.563Z,20.70
2022-12-17T11:36:39.350Z,20.90
2022-12-17T11:37:08.483Z,20.90
2022-12-17T11:37:38.449Z,20.90
2022-12-17T11:38:08.410Z,19.50
2022-12-17T11:38:38.652Z,19.30
2022-12-17T11:39:08.310Z,18.70
2022-12-17T11:39:38.275Z,18.10
2022-12-17T11:40:08.199Z,18.90
2022-12-17T11:40:38.174Z,16.30
2022-12-17T11:41:08.108Z,18.10
2022-12-17T11:41:38.033Z,16.50
2022-12-17T11:42:11.285Z,18.00
2022-12-17T11:42:37.915Z,16.10
2022-12-17T11:43:07.812Z,17.40
2022-12-17T11:43:37.761Z,16.50
2022-12-17T11:44:07.676Z,16.20
2022-12-17T11:44:37.616Z,15.60
2022-12-17T11:45:07.547Z,19.30
2022-12-17T11:45:37.440Z,16.30
2022-12-17T11:46:07.432Z,23.70
2022-12-17T11:46:37.355Z,19.50
2022-12-17T11:47:07.226Z,21.10
2022-12-17T11:47:37.177Z,20.60
2022-12-17T11:48:07.077Z,21.80
2022-12-17T11:48:37.371Z,18.50
2022-12-17T11:49:06.936Z,25.10
2022-12-17T11:49:36.927Z,21.70
2022-12-17T11:50:06.782Z,23.30
2022-12-17T11:50:36.745Z,25.70
2022-12-17T11:51:06.700Z,22.70
2022-12-17T11:51:36.612Z,22.30
2022-12-17T11:52:06.562Z,22.20
2022-12-17T11:52:36.481Z,21.90
2022-12-17T11:53:06.413Z,21.30
2022-12-17T11:53:36.374Z,21.10
2022-12-17T11:54:06.328Z,21.70
2022-12-17T11:54:36.322Z,22.30
2022-12-17T11:55:06.278Z,21.60
2022-12-17T11:55:36.219Z,22.50
2022-12-17T11:56:06.255Z,21.40
2022-12-17T11:56:36.188Z,23.10
2022-12-17T11:57:06.167Z,21.70
2022-12-17T11:57:36.092Z,22.00
2022-12-17T11:58:06.064Z,22.60
2022-12-17T11:58:36.383Z,20.60
2022-12-17T11:59:06.017Z,20.30
2022-12-17T11:59:36.004Z,20.10
2022-12-17T12:00:05.869Z,21.10
2022-12-17T12:00:35.932Z,21.30
2022-12-17T12:01:05.762Z,19.70
2022-12-17T12:01:35.760Z,19.50
2022-12-17T12:02:05.689Z,19.00
2022-12-17T12:02:35.703Z,25.70
2022-12-17T12:03:05.589Z,39.60
2022-12-17T12:03:35.597Z,61.90
2022-12-17T12:04:05.424Z,67.40
2022-12-17T12:04:35.364Z,73.90
2022-12-17T12:05:05.257Z,78.40
2022-12-17T12:05:35.142Z,116.90
2022-12-17T12:06:05.129Z,114.30
2022-12-17T12:06:34.976Z,105.00
2022-12-17T12:07:04.910Z,127.00
2022-12-17T12:07:34.860Z,135.10
2022-12-17T12:08:04.716Z,131.50
2022-12-17T12:08:35.066Z,134.70
2022-12-17T12:09:04.589Z,121.90
2022-12-17T12:09:34.469Z,113.10
2022-12-17T12:10:04.375Z,121.90
2022-12-17T12:10:34.297Z,115.00
2022-12-17T12:11:04.178Z,115.60
2022-12-17T12:11:34.160Z,118.40
2022-12-17T12:12:04.002Z,126.40
2022-12-17T12:12:33.905Z,121.90
2022-12-17T12:13:03.884Z,129.50
2022-12-17T12:13:33.724Z,120.50
2022-12-17T12:14:03.649Z,120.40
2022-12-17T12:14:33.533Z,113.20
2022-12-17T12:15:03.427Z,113.10
2022-12-17T12:15:33.357Z,115.90
2022-12-17T12:16:03.310Z,112.20
2022-12-17T12:16:33.264Z,107.60
2022-12-17T12:17:03.059Z,118.60
2022-12-17T12:17:32.978Z,108.90
2022-12-17T12:18:02.902Z,104.50
2022-12-17T12:18:32.799Z,110.10
2022-12-17T12:19:02.725Z,107.80
2022-12-17T12:19:32.634Z,105.10
2022-12-17T12:20:02.522Z,101.90
2022-12-17T12:20:32.442Z,101.60
2022-12-17T12:21:02.363Z,99.50
2022-12-17T12:21:32.271Z,97.00
2022-12-17T12:22:02.182Z,102.80
2022-12-17T12:22:32.113Z,100.80
2022-12-17T12:23:02.008Z,94.40
2022-12-17T12:23:31.931Z,96.40
2022-12-17T12:24:01.864Z,102.30
2022-12-17T12:24:31.767Z,98.70
2022-12-17T12:25:01.678Z,95.10
2022-12-17T12:25:31.614Z,93.20
2022-12-17T12:26:01.542Z,89.60
2022-12-17T12:26:31.716Z,95.50
2022-12-17T12:27:01.369Z,87.40
2022-12-17T12:27:31.291Z,90.70
2022-12-17T12:28:01.187Z,81.80
2022-12-17T12:28:31.165Z,84.80
2022-12-17T12:29:01.029Z,88.10
2022-12-17T12:29:30.963Z,88.90
2022-12-17T12:30:00.866Z,82.90
2022-12-17T12:30:30.806Z,84.60
2022-12-17T12:31:00.718Z,84.40
2022-12-17T12:31:30.745Z,83.20
2022-12-17T12:32:00.636Z,85.60
2022-12-17T12:32:30.454Z,82.20
2022-12-17T12:33:03.159Z,80.80
2022-12-17T12:33:31.299Z,85.00
2022-12-17T12:34:00.180Z,80.50
2022-12-17T12:34:30.115Z,85.70
2022-12-17T12:35:00.000Z,78.30
2022-12-17T12:35:29.919Z,72.80
2022-12-17T12:35:59.832Z,71.80
2022-12-17T12:36:29.806Z,70.40
2022-12-17T12:36:59.681Z,76.20
2022-12-17T12:37:29.630Z,75.90
2022-12-17T12:37:59.478Z,65.80
2022-12-17T12:38:29.443Z,73.60
2022-12-17T12:38:59.325Z,69.40
2022-12-17T12:39:29.223Z,77.70
2022-12-17T12:39:59.181Z,74.60
2022-12-17T12:40:30.367Z,73.40
2022-12-17T12:41:09.043Z,72.80
2022-12-17T12:41:28.844Z,68.20
2022-12-17T12:44:15.669Z,72.00
2022-12-17T12:44:49.596Z,67.80
2022-12-17T12:45:15.350Z,75.90
2022-12-17T12:45:45.402Z,75.60
2022-12-17T12:46:15.417Z,64.70
2022-12-17T12:46:45.295Z,70.20
2022-12-17T12:47:15.295Z,72.50
2022-12-17T13:08:01.370Z,49.90
2022-12-17T13:08:31.237Z,40.30
2022-12-17T13:09:01.251Z,41.00
2022-12-17T13:09:34.826Z,36.50
2022-12-17T13:10:01.259Z,45.20
2022-12-17T13:10:31.257Z,44.10
2022-12-17T13:11:01.300Z,49.70
2022-12-17T13:11:31.258Z,58.20
2022-12-17T13:12:01.233Z,55.70
2022-12-17T13:12:31.312Z,46.50
2022-12-17T13:13:01.269Z,44.90
2022-12-17T13:13:31.216Z,44.20
2022-12-17T13:14:01.219Z,45.80
2022-12-17T13:14:31.250Z,42.20
2022-12-17T13:15:01.233Z,42.00
2022-12-17T13:15:33.232Z,46.30
2022-12-17T13:16:01.248Z,46.50
2022-12-17T13:16:31.268Z,43.40
2022-12-17T13:17:01.198Z,44.00
2022-12-17T13:17:31.208Z,43.40
2022-12-17T13:18:01.351Z,39.30
2022-12-17T13:18:31.279Z,48.00
2022-12-17T13:19:01.191Z,52.40
2022-12-17T13:19:31.162Z,42.70
2022-12-17T13:20:01.136Z,48.50
2022-12-17T13:20:31.106Z,48.20
2022-12-17T13:21:01.113Z,49.40
2022-12-17T13:21:31.077Z,45.20
2022-12-17T13:22:01.359Z,47.90
2022-12-17T13:22:31.062Z,46.60
2022-12-17T13:23:01.101Z,47.00
2022-12-17T13:23:31.280Z,42.50
2022-12-17T13:24:01.112Z,44.30
2022-12-17T13:24:30.992Z,41.60
2022-12-17T13:25:10.666Z,44.70
2022-12-17T13:25:30.941Z,45.50
2022-12-17T13:26:00.939Z,45.20
2022-12-17T13:26:30.904Z,37.70
2022-12-17T13:27:00.917Z,42.10
2022-12-17T13:27:30.859Z,40.10
2022-12-17T13:28:00.847Z,39.20
2022-12-17T13:28:30.837Z,42.60
2022-12-17T13:29:00.893Z,42.20
2022-12-17T13:29:30.891Z,42.80
2022-12-17T13:30:09.718Z,37.90
2022-12-17T13:30:30.716Z,39.90
2022-12-17T13:31:00.705Z,40.60
2022-12-17T13:31:30.717Z,39.80
2022-12-17T13:32:00.824Z,41.20
2022-12-17T13:32:30.641Z,39.60
2022-12-17T13:33:00.619Z,39.60
2022-12-17T13:33:30.649Z,39.40
2022-12-17T13:34:00.584Z,38.80
2022-12-17T13:34:40.239Z,41.80
2022-12-17T13:35:02.396Z,38.40
2022-12-17T13:36:55.282Z,36.60
2022-12-17T13:37:25.278Z,38.40
2022-12-17T13:37:55.289Z,42.60
2022-12-17T13:38:25.300Z,38.40
2022-12-17T13:38:55.330Z,38.70
2022-12-17T13:39:25.287Z,38.70
2022-12-17T13:39:55.309Z,38.50
2022-12-17T13:40:25.279Z,37.50
2022-12-17T13:40:55.288Z,39.80
2022-12-17T13:41:25.302Z,38.10
2022-12-17T13:41:55.280Z,41.40
2022-12-17T13:42:25.271Z,39.30
2022-12-17T13:43:03.055Z,37.10
2022-12-17T13:43:36.271Z,33.90
2022-12-17T13:43:55.273Z,30.90
2022-12-17T13:44:25.255Z,26.70
2022-12-17T13:44:55.266Z,27.20
2022-12-17T13:45:36.684Z,24.50
2022-12-17T13:45:55.322Z,23.40
2022-12-17T13:46:25.395Z,24.00
2022-12-17T13:47:06.956Z,25.80
2022-12-17T13:47:25.278Z,25.10
2022-12-17T13:47:55.290Z,23.50
2022-12-17T13:50:03.989Z,25.20
2022-12-17T13:50:33.826Z,33.30
2022-12-17T13:50:48.433Z,35.40
2022-12-17T13:51:17.443Z,31.20
2022-12-17T13:51:47.448Z,30.00
2022-12-17T13:52:17.441Z,34.80
2022-12-17T13:52:47.499Z,33.00
2022-12-17T13:53:17.468Z,32.20
2022-12-17T13:53:47.424Z,30.00
2022-12-17T13:54:17.448Z,30.50
2022-12-17T13:54:47.448Z,31.60
2022-12-17T13:55:17.426Z,30.10
2022-12-17T13:55:47.410Z,33.50
2022-12-17T13:56:17.417Z,33.60
2022-12-17T13:56:47.421Z,33.00
2022-12-17T13:57:17.419Z,29.50
2022-12-17T13:57:47.412Z,30.20
2022-12-17T13:58:17.425Z,30.50
2022-12-17T13:58:51.078Z,31.10
2022-12-17T13:59:17.422Z,35.50
2022-12-17T13:59:47.463Z,34.60
